createdAt,value
2022-11-16T00:00:07.399Z,98458.72
2022-11-16T00:00:38.978Z,98460.41
2022-11-16T00:01:17.594Z,98458.41
2022-11-16T00:01:49.060Z,98453.91
2022-11-16T00:02:20.583Z,98459.41
2022-11-16T00:02:51.979Z,98458.56
2022-11-16T00:03:23.528Z,98460.88
2022-11-16T00:03:55.600Z,98457.22
2022-11-16T00:04:27.067Z,98457.56
2022-11-16T00:04:58.518Z,98456.59
2022-11-16T00:05:29.984Z,98463.53
2022-11-16T00:06:02.323Z,98460.06
2022-11-16T00:06:33.791Z,98458.22
2022-11-16T00:07:05.184Z,98457.41
2022-11-16T00:07:36.754Z,98459.41
2022-11-16T00:08:08.383Z,98457.22
2022-11-16T00:08:40.832Z,98450.91
2022-11-16T00:09:12.320Z,98458.06
2022-11-16T00:09:43.838Z,98448.91
2022-11-16T00:10:15.556Z,98451.56
2022-11-16T00:10:47.026Z,98458.91
2022-11-16T00:11:18.619Z,98454.22
2022-11-16T00:11:50.718Z,98456.41
2022-11-16T00:12:22.115Z,98445.59
2022-11-16T00:12:53.695Z,98449.91
2022-11-16T00:13:25.083Z,98459.72
2022-11-16T00:13:56.505Z,98452.56
2022-11-16T00:14:28.959Z,98458.91
2022-11-16T00:15:00.438Z,98443.94
2022-11-16T00:15:31.948Z,98443.75
2022-11-16T00:16:03.636Z,98443.09
2022-11-16T00:16:35.098Z,98445.59
2022-11-16T00:17:06.486Z,98450.91
2022-11-16T00:17:37.921Z,98447.25
2022-11-16T00:18:09.436Z,98441.09
2022-11-16T00:18:40.894Z,98444.75
2022-11-16T00:19:12.417Z,98440.28
2022-11-16T00:19:43.889Z,98437.28
2022-11-16T00:20:15.455Z,98433.78
2022-11-16T00:20:46.871Z,98438.13
2022-11-16T00:21:18.324Z,98439.94
2022-11-16T00:21:49.717Z,98435.94
2022-11-16T00:22:21.217Z,98435.94
2022-11-16T00:22:52.669Z,98436.13
2022-11-16T00:23:24.143Z,98437.97
2022-11-16T00:23:55.724Z,98442.25
2022-11-16T00:24:27.205Z,98435.63
2022-11-16T00:24:58.607Z,98431.78
2022-11-16T00:25:29.951Z,98439.13
2022-11-16T00:26:05.150Z,98437.28
2022-11-16T00:26:36.622Z,98439.94
2022-11-16T00:27:08.111Z,98435.94
2022-11-16T00:27:39.550Z,98433.44
2022-11-16T00:28:11.051Z,98431.94
2022-11-16T00:28:42.605Z,98436.13
2022-11-16T00:29:17.428Z,98432.47
2022-11-16T00:29:48.821Z,98430.78
2022-11-16T00:30:20.187Z,98428.94
2022-11-16T00:30:57.790Z,98428.13
2022-11-16T00:31:29.199Z,98429.97
2022-11-16T00:32:00.649Z,98427.31
2022-11-16T00:32:32.096Z,98430.63
2022-11-16T00:33:04.383Z,98433.28
2022-11-16T00:33:35.831Z,98427.78
2022-11-16T00:34:07.252Z,98429.63
2022-11-16T00:34:39.430Z,98429.28
2022-11-16T00:35:10.887Z,98425.16
2022-11-16T00:35:42.270Z,98425.81
2022-11-16T00:36:13.769Z,98431.63
2022-11-16T00:36:45.307Z,98425.47
2022-11-16T00:37:16.729Z,98427.66
2022-11-16T00:37:48.159Z,98419.50
2022-11-16T00:38:19.564Z,98419.50
2022-11-16T00:38:53.516Z,98425.63
2022-11-16T00:39:24.944Z,98423.97
2022-11-16T00:39:56.479Z,98419.00
2022-11-16T00:40:27.915Z,98421.66
2022-11-16T00:40:59.519Z,98420.66
2022-11-16T00:41:31.008Z,98420.00
2022-11-16T00:42:02.561Z,98415.34
2022-11-16T00:42:33.966Z,98421.31
2022-11-16T00:43:05.449Z,98423.16
2022-11-16T00:43:36.960Z,98416.00
2022-11-16T00:44:08.613Z,98412.69
2022-11-16T00:44:40.011Z,98421.47
2022-11-16T00:45:11.468Z,98421.31
2022-11-16T00:45:43.155Z,98413.50
2022-11-16T00:46:14.602Z,98416.66
2022-11-16T00:46:46.169Z,98418.66
2022-11-16T00:47:17.630Z,98418.66
2022-11-16T00:47:49.066Z,98419.34
2022-11-16T00:48:20.473Z,98416.00
2022-11-16T00:48:51.919Z,98416.84
2022-11-16T00:49:23.371Z,98415.81
2022-11-16T00:49:54.777Z,98417.50
2022-11-16T00:50:26.223Z,98418.31
2022-11-16T00:50:57.588Z,98418.31
2022-11-16T00:51:29.051Z,98418.66
2022-11-16T00:52:00.524Z,98410.66
2022-11-16T00:52:31.967Z,98416.84
2022-11-16T00:53:03.720Z,98419.84
2022-11-16T00:53:35.387Z,98419.66
2022-11-16T00:54:06.988Z,98416.16
2022-11-16T00:54:38.466Z,98416.00
2022-11-16T00:55:09.862Z,98411.69
2022-11-16T00:55:41.269Z,98413.16
2022-11-16T00:56:12.742Z,98422.31
2022-11-16T00:56:44.234Z,98418.66
2022-11-16T00:57:15.697Z,98418.31
2022-11-16T00:57:47.170Z,98414.66
2022-11-16T00:58:18.641Z,98419.16
2022-11-16T00:58:50.196Z,98415.47
2022-11-16T00:59:21.690Z,98424.66
2022-11-16T00:59:53.245Z,98413.84
2022-11-16T01:00:24.758Z,98417.50
2022-11-16T01:00:56.373Z,98416.66
2022-11-16T01:01:27.932Z,98415.81
2022-11-16T01:01:59.485Z,98410.50
2022-11-16T01:02:30.947Z,98419.34
2022-11-16T01:03:02.486Z,98414.00
2022-11-16T01:03:34.662Z,98407.84
2022-11-16T01:04:06.054Z,98411.69
2022-11-16T01:04:37.528Z,98409.84
2022-11-16T01:05:09.205Z,98408.69
2022-11-16T01:05:40.629Z,98411.19
2022-11-16T01:06:12.586Z,98409.34
2022-11-16T01:06:44.041Z,98405.00
2022-11-16T01:07:15.521Z,98412.16
2022-11-16T01:07:47.001Z,98403.03
2022-11-16T01:08:18.435Z,98401.53
2022-11-16T01:08:49.928Z,98407.66
2022-11-16T01:09:21.392Z,98403.03
2022-11-16T01:09:52.886Z,98400.53
2022-11-16T01:10:24.588Z,98408.84
2022-11-16T01:10:56.065Z,98406.03
2022-11-16T01:11:27.505Z,98405.16
2022-11-16T01:11:59.037Z,98403.19
2022-11-16T01:12:30.553Z,98410.16
2022-11-16T01:13:02.025Z,98406.84
2022-11-16T01:13:33.484Z,98398.69
2022-11-16T01:14:05.612Z,98404.00
2022-11-16T01:14:37.315Z,98406.84
2022-11-16T01:15:09.169Z,98403.84
2022-11-16T01:15:40.584Z,98401.53
2022-11-16T01:16:15.240Z,98396.84
2022-11-16T01:16:48.720Z,98397.69
2022-11-16T01:17:20.241Z,98392.38
2022-11-16T01:17:52.049Z,98402.34
2022-11-16T01:18:23.386Z,98405.69
2022-11-16T01:18:54.841Z,98409.97
2022-11-16T01:19:26.272Z,98397.88
2022-11-16T01:19:57.723Z,98394.19
2022-11-16T01:20:29.372Z,98395.22
2022-11-16T01:21:00.795Z,98393.38
2022-11-16T01:21:32.233Z,98396.03
2022-11-16T01:22:03.728Z,98397.88
2022-11-16T01:22:35.309Z,98403.03
2022-11-16T01:23:06.805Z,98396.69
2022-11-16T01:23:38.161Z,98398.69
2022-11-16T01:24:09.681Z,98393.38
2022-11-16T01:24:41.130Z,98386.03
2022-11-16T01:25:12.908Z,98394.19
2022-11-16T01:25:44.340Z,98398.53
2022-11-16T01:26:15.798Z,98392.88
2022-11-16T01:26:47.212Z,98390.88
2022-11-16T01:27:18.733Z,98391.69
2022-11-16T01:27:50.358Z,98389.88
2022-11-16T01:28:21.773Z,98395.22
2022-11-16T01:28:53.334Z,98393.53
2022-11-16T01:29:25.181Z,98400.38
2022-11-16T01:29:56.613Z,98384.72
2022-11-16T01:30:28.062Z,98395.22
2022-11-16T01:30:59.466Z,98388.88
2022-11-16T01:31:30.897Z,98388.03
2022-11-16T01:32:02.481Z,98392.72
2022-11-16T01:32:34.059Z,98386.38
2022-11-16T01:33:05.660Z,98384.72
2022-11-16T01:33:37.248Z,98384.72
2022-11-16T01:34:08.677Z,98384.91
2022-11-16T01:34:40.084Z,98383.88
2022-11-16T01:35:14.492Z,98384.56
2022-11-16T01:35:46.001Z,98384.41
2022-11-16T01:36:17.498Z,98382.72
2022-11-16T01:36:48.947Z,98389.72
2022-11-16T01:37:20.318Z,98385.38
2022-11-16T01:37:51.741Z,98379.06
2022-11-16T01:38:28.448Z,98387.22
2022-11-16T01:39:01.170Z,98388.88
2022-11-16T01:39:32.642Z,98378.41
2022-11-16T01:40:04.270Z,98378.41
2022-11-16T01:40:36.435Z,98378.41
2022-11-16T01:41:07.862Z,98381.22
2022-11-16T01:41:39.308Z,98375.72
2022-11-16T01:42:23.583Z,98380.06
2022-11-16T01:42:55.079Z,98373.75
2022-11-16T01:43:26.537Z,98378.06
2022-11-16T01:44:05.215Z,98378.06
2022-11-16T01:44:36.574Z,98384.19
2022-11-16T01:45:07.996Z,98377.22
2022-11-16T01:45:39.657Z,98374.56
2022-11-16T01:46:11.098Z,98386.38
2022-11-16T01:46:42.552Z,98375.72
2022-11-16T01:47:14.614Z,98371.25
2022-11-16T01:47:46.172Z,98370.41
2022-11-16T01:48:25.077Z,98374.75
2022-11-16T01:49:00.881Z,98377.41
2022-11-16T01:49:33.055Z,98381.06
2022-11-16T01:50:06.491Z,98376.06
2022-11-16T01:50:37.915Z,98376.59
2022-11-16T01:51:09.447Z,98379.41
2022-11-16T01:51:41.696Z,98376.75
2022-11-16T01:52:17.921Z,98373.06
2022-11-16T01:52:52.579Z,98369.59
2022-11-16T01:53:24.408Z,98369.94
2022-11-16T01:53:56.315Z,98375.72
2022-11-16T01:54:27.854Z,98366.09
2022-11-16T01:54:59.306Z,98365.25
2022-11-16T01:55:31.100Z,98368.09
2022-11-16T01:56:02.622Z,98365.44
2022-11-16T01:56:34.044Z,98366.94
2022-11-16T01:57:05.891Z,98367.75
2022-11-16T01:57:38.197Z,98365.94
2022-11-16T01:58:10.592Z,98365.44
2022-11-16T01:58:42.031Z,98362.59
2022-11-16T01:59:13.463Z,98366.94
2022-11-16T01:59:45.053Z,98363.44
2022-11-16T02:00:16.835Z,98365.09
2022-11-16T02:00:48.373Z,98367.75
2022-11-16T02:01:19.949Z,98367.56
2022-11-16T02:01:51.517Z,98358.78
2022-11-16T02:02:22.957Z,98361.44
2022-11-16T02:02:54.389Z,98368.44
2022-11-16T02:03:25.849Z,98362.44
2022-11-16T02:03:57.325Z,98360.78
2022-11-16T02:04:28.825Z,98350.78
2022-11-16T02:05:00.344Z,98370.25
2022-11-16T02:05:38.939Z,98357.78
2022-11-16T02:06:28.290Z,98357.44
2022-11-16T02:07:05.367Z,98356.13
2022-11-16T02:07:55.309Z,98360.97
2022-11-16T02:08:35.722Z,98358.94
2022-11-16T02:09:16.258Z,98356.13
2022-11-16T02:10:05.864Z,98360.78
2022-11-16T02:10:52.304Z,98352.81
2022-11-16T02:11:42.111Z,98347.66
2022-11-16T02:12:19.635Z,98354.63
2022-11-16T02:13:26.343Z,98353.63
2022-11-16T02:14:08.301Z,98359.78
2022-11-16T02:14:39.730Z,98353.63
2022-11-16T02:15:23.627Z,98360.63
2022-11-16T02:15:55.028Z,98349.13
2022-11-16T02:16:39.130Z,98351.94
2022-11-16T02:17:28.903Z,98350.78
2022-11-16T02:18:06.312Z,98348.13
2022-11-16T02:18:39.306Z,98343.81
2022-11-16T02:19:10.874Z,98344.16
2022-11-16T02:19:53.982Z,98347.47
2022-11-16T02:20:31.600Z,98347.66
2022-11-16T02:21:02.980Z,98346.00
2022-11-16T02:21:40.136Z,98339.69
2022-11-16T02:22:20.454Z,98346.63
2022-11-16T02:23:00.403Z,98341.13
2022-11-16T02:23:50.171Z,98341.31
2022-11-16T02:24:42.475Z,98337.66
2022-11-16T02:25:16.580Z,98342.97
2022-11-16T02:25:59.849Z,98339.69
2022-11-16T02:26:50.039Z,98344.81
2022-11-16T02:27:26.362Z,98336.84
2022-11-16T02:28:13.800Z,98332.50
2022-11-16T02:29:00.513Z,98332.69
2022-11-16T02:29:31.970Z,98339.00
2022-11-16T02:30:05.885Z,98331.88
2022-11-16T02:30:37.268Z,98348.31
2022-11-16T02:31:09.534Z,98333.16
2022-11-16T02:31:42.623Z,98332.16
2022-11-16T02:32:15.424Z,98342.00
2022-11-16T02:32:49.757Z,98341.13
2022-11-16T02:33:22.238Z,98336.66
2022-11-16T02:33:53.769Z,98335.66
2022-11-16T02:34:25.132Z,98330.31
2022-11-16T02:35:08.855Z,98333.16
2022-11-16T02:35:44.064Z,98333.16
2022-11-16T02:36:16.983Z,98332.34
2022-11-16T02:36:48.784Z,98332.97
2022-11-16T02:37:20.661Z,98331.19
2022-11-16T02:38:18.418Z,98329.34
2022-11-16T02:39:02.738Z,98333.63
2022-11-16T02:39:34.140Z,98326.66
2022-11-16T02:40:06.870Z,98335.47
2022-11-16T02:40:39.273Z,98328.69
2022-11-16T02:41:17.934Z,98321.69
2022-11-16T02:41:49.391Z,98325.53
2022-11-16T02:42:22.793Z,98336.84
2022-11-16T02:43:14.439Z,98329.03
2022-11-16T02:43:46.737Z,98336.84
2022-11-16T02:44:25.881Z,98336.84
2022-11-16T02:44:57.339Z,98326.38
2022-11-16T02:45:29.200Z,98324.19
2022-11-16T02:46:02.533Z,98330.31
2022-11-16T02:46:37.156Z,98322.50
2022-11-16T02:47:09.464Z,98332.00
2022-11-16T02:47:40.892Z,98333.84
2022-11-16T02:48:13.295Z,98331.53
2022-11-16T02:48:46.307Z,98324.53
2022-11-16T02:49:18.323Z,98328.84
2022-11-16T02:49:54.388Z,98336.66
2022-11-16T02:50:25.766Z,98328.50
2022-11-16T02:50:57.207Z,98323.38
2022-11-16T02:51:28.620Z,98333.50
2022-11-16T02:52:00.095Z,98332.16
2022-11-16T02:52:31.512Z,98328.69
2022-11-16T02:53:03.160Z,98328.69
2022-11-16T02:53:37.491Z,98331.53
2022-11-16T02:54:13.274Z,98333.16
2022-11-16T02:54:44.744Z,98331.53
2022-11-16T02:55:16.333Z,98328.69
2022-11-16T02:55:47.764Z,98330.31
2022-11-16T02:56:19.291Z,98332.97
2022-11-16T02:56:52.737Z,98331.81
2022-11-16T02:57:42.619Z,98329.50
2022-11-16T02:58:14.530Z,98334.81
2022-11-16T02:58:46.079Z,98335.81
2022-11-16T02:59:17.886Z,98330.66
2022-11-16T02:59:50.729Z,98338.47
2022-11-16T03:00:33.783Z,98336.84
2022-11-16T03:01:11.732Z,98332.34
2022-11-16T03:01:48.387Z,98334.34
2022-11-16T03:02:23.975Z,98336.84
2022-11-16T03:03:06.939Z,98334.19
2022-11-16T03:03:42.879Z,98343.63
2022-11-16T03:04:18.903Z,98339.16
2022-11-16T03:04:51.586Z,98334.00
2022-11-16T03:05:33.529Z,98334.00
2022-11-16T03:06:08.638Z,98333.31
2022-11-16T03:06:40.104Z,98336.16
2022-11-16T03:07:12.579Z,98341.13
2022-11-16T03:07:53.873Z,98339.34
2022-11-16T03:08:26.518Z,98339.84
2022-11-16T03:09:00.529Z,98337.19
2022-11-16T03:09:32.130Z,98339.69
2022-11-16T03:10:03.815Z,98334.19
2022-11-16T03:10:38.918Z,98342.00
2022-11-16T03:11:10.659Z,98336.66
2022-11-16T03:11:43.285Z,98336.84
2022-11-16T03:12:15.440Z,98334.19
2022-11-16T03:12:46.943Z,98342.16
2022-11-16T03:13:18.391Z,98335.34
2022-11-16T03:13:49.987Z,98342.16
2022-11-16T03:14:22.699Z,98338.66
2022-11-16T03:14:54.747Z,98336.84
2022-11-16T03:15:26.279Z,98338.47
2022-11-16T03:15:57.725Z,98327.84
2022-11-16T03:16:36.574Z,98334.53
2022-11-16T03:17:09.058Z,98339.34
2022-11-16T03:17:41.676Z,98328.00
2022-11-16T03:18:13.687Z,98334.69
2022-11-16T03:18:45.162Z,98334.53
2022-11-16T03:19:42.898Z,98333.50
2022-11-16T03:20:15.533Z,98338.81
2022-11-16T03:20:47.017Z,98339.50
2022-11-16T03:21:21.905Z,98341.47
2022-11-16T03:21:57.808Z,98345.16
2022-11-16T03:22:38.363Z,98344.16
2022-11-16T03:23:10.221Z,98342.81
2022-11-16T03:23:41.847Z,98339.34
2022-11-16T03:24:13.289Z,98340.16
2022-11-16T03:24:44.790Z,98346.28
2022-11-16T03:25:16.869Z,98343.31
2022-11-16T03:25:51.609Z,98346.97
2022-11-16T03:26:24.206Z,98339.69
2022-11-16T03:27:14.212Z,98344.16
2022-11-16T03:27:55.704Z,98345.00
2022-11-16T03:28:34.725Z,98340.84
2022-11-16T03:29:14.355Z,98345.00
2022-11-16T03:29:47.782Z,98342.50
2022-11-16T03:30:23.349Z,98342.50
2022-11-16T03:30:57.668Z,98346.16
2022-11-16T03:31:29.823Z,98345.00
2022-11-16T03:32:04.168Z,98351.94
2022-11-16T03:33:07.727Z,98345.81
2022-11-16T03:33:43.488Z,98342.16
2022-11-16T03:34:15.501Z,98338.81
2022-11-16T03:35:07.139Z,98340.16
2022-11-16T03:35:39.229Z,98350.63
2022-11-16T03:36:13.642Z,98340.16
2022-11-16T03:36:45.251Z,98343.81
2022-11-16T03:37:16.669Z,98338.47
2022-11-16T03:37:48.286Z,98332.16
2022-11-16T03:38:20.178Z,98327.84
2022-11-16T03:38:51.640Z,98331.19
2022-11-16T03:39:26.992Z,98330.31
2022-11-16T03:39:58.511Z,98331.19
2022-11-16T03:40:30.618Z,98327.66
2022-11-16T03:41:02.714Z,98332.34
2022-11-16T03:41:34.206Z,98328.00
2022-11-16T03:42:06.953Z,98331.53
2022-11-16T03:42:38.806Z,98336.84
2022-11-16T03:43:10.309Z,98328.69
2022-11-16T03:43:41.801Z,98330.31
2022-11-16T03:44:13.285Z,98331.19
2022-11-16T03:44:44.749Z,98332.16
2022-11-16T03:45:16.220Z,98327.31
2022-11-16T03:45:47.671Z,98324.81
2022-11-16T03:46:19.153Z,98328.69
2022-11-16T03:46:50.521Z,98331.53
2022-11-16T03:47:22.017Z,98330.16
2022-11-16T03:47:53.593Z,98329.50
2022-11-16T03:48:25.099Z,98326.03
2022-11-16T03:48:57.136Z,98322.34
2022-11-16T03:49:29.975Z,98329.34
2022-11-16T03:50:01.475Z,98330.31
2022-11-16T03:50:32.869Z,98322.16
2022-11-16T03:51:04.661Z,98320.53
2022-11-16T03:51:36.233Z,98320.69
2022-11-16T03:52:07.685Z,98316.19
2022-11-16T03:52:39.236Z,98315.38
2022-11-16T03:53:10.618Z,98317.88
2022-11-16T03:53:42.073Z,98313.53
2022-11-16T03:54:13.600Z,98311.53
2022-11-16T03:54:45.036Z,98319.50
2022-11-16T03:55:16.536Z,98314.84
2022-11-16T03:55:49.907Z,98320.53
2022-11-16T03:56:21.617Z,98315.22
2022-11-16T03:56:53.040Z,98319.50
2022-11-16T03:57:24.429Z,98315.00
2022-11-16T03:57:55.932Z,98317.66
2022-11-16T03:58:27.345Z,98316.84
2022-11-16T03:58:58.872Z,98307.88
2022-11-16T03:59:30.334Z,98316.03
2022-11-16T04:00:04.820Z,98311.53
2022-11-16T04:00:36.544Z,98303.88
2022-11-16T04:01:08.152Z,98306.19
2022-11-16T04:01:44.526Z,98308.22
2022-11-16T04:02:16.370Z,98306.19
2022-11-16T04:02:47.814Z,98302.72
2022-11-16T04:03:19.317Z,98297.22
2022-11-16T04:03:50.823Z,98298.88
2022-11-16T04:04:22.433Z,98302.56
2022-11-16T04:04:53.857Z,98308.69
2022-11-16T04:05:25.278Z,98308.53
2022-11-16T04:05:56.766Z,98303.53
2022-11-16T04:06:28.320Z,98301.69
2022-11-16T04:06:59.859Z,98307.88
2022-11-16T04:07:31.450Z,98305.22
2022-11-16T04:08:02.901Z,98301.91
2022-11-16T04:08:34.467Z,98306.03
2022-11-16T04:09:06.187Z,98307.88
2022-11-16T04:09:37.615Z,98305.84
2022-11-16T04:10:09.612Z,98300.72
2022-11-16T04:10:41.109Z,98304.19
2022-11-16T04:11:15.479Z,98302.56
2022-11-16T04:11:47.169Z,98304.34
2022-11-16T04:12:18.730Z,98306.19
2022-11-16T04:12:50.177Z,98300.53
2022-11-16T04:13:24.952Z,98303.72
2022-11-16T04:13:56.492Z,98306.19
2022-11-16T04:14:27.951Z,98300.06
2022-11-16T04:14:59.448Z,98304.56
2022-11-16T04:15:30.932Z,98303.53
2022-11-16T04:16:02.460Z,98309.50
2022-11-16T04:16:33.884Z,98305.22
2022-11-16T04:17:14.991Z,98303.38
2022-11-16T04:17:46.584Z,98313.03
2022-11-16T04:18:18.086Z,98311.19
2022-11-16T04:18:49.596Z,98312.84
2022-11-16T04:19:21.104Z,98308.69
2022-11-16T04:19:57.766Z,98310.34
2022-11-16T04:20:29.664Z,98316.50
2022-11-16T04:21:01.134Z,98319.16
2022-11-16T04:21:34.025Z,98319.34
2022-11-16T04:22:06.641Z,98322.66
2022-11-16T04:22:42.407Z,98322.81
2022-11-16T04:23:14.574Z,98327.16
2022-11-16T04:23:46.114Z,98324.31
2022-11-16T04:24:19.330Z,98328.31
2022-11-16T04:24:51.812Z,98329.97
2022-11-16T04:25:24.337Z,98329.97
2022-11-16T04:25:55.773Z,98338.59
2022-11-16T04:26:27.279Z,98333.28
2022-11-16T04:27:03.748Z,98338.59
2022-11-16T04:27:35.240Z,98334.47
2022-11-16T04:28:06.851Z,98338.78
2022-11-16T04:28:38.542Z,98333.47
2022-11-16T04:29:10.050Z,98338.13
2022-11-16T04:29:41.730Z,98340.63
2022-11-16T04:30:13.227Z,98339.63
2022-11-16T04:30:48.167Z,98339.81
2022-11-16T04:31:19.607Z,98336.97
2022-11-16T04:31:51.091Z,98341.44
2022-11-16T04:32:22.542Z,98340.44
2022-11-16T04:32:54.089Z,98337.97
2022-11-16T04:33:25.676Z,98335.47
2022-11-16T04:33:57.076Z,98334.47
2022-11-16T04:34:28.510Z,98339.34
2022-11-16T04:34:59.994Z,98341.81
2022-11-16T04:35:31.463Z,98341.81
2022-11-16T04:36:02.968Z,98338.13
2022-11-16T04:36:34.456Z,98336.50
2022-11-16T04:37:05.865Z,98336.28
2022-11-16T04:37:37.327Z,98336.28
2022-11-16T04:38:08.739Z,98330.97
2022-11-16T04:38:40.357Z,98335.66
2022-11-16T04:39:11.916Z,98336.50
2022-11-16T04:39:43.290Z,98329.34
2022-11-16T04:40:17.926Z,98332.81
2022-11-16T04:40:49.321Z,98323.84
2022-11-16T04:41:20.726Z,98331.19
2022-11-16T04:41:52.216Z,98325.84
2022-11-16T04:42:23.605Z,98322.16
2022-11-16T04:42:55.426Z,98322.16
2022-11-16T04:43:27.009Z,98323.00
2022-11-16T04:43:58.463Z,98324.81
2022-11-16T04:44:30.126Z,98321.19
2022-11-16T04:45:04.397Z,98329.16
2022-11-16T04:45:38.724Z,98326.66
2022-11-16T04:46:10.170Z,98334.66
2022-11-16T04:46:41.578Z,98325.84
2022-11-16T04:47:13.027Z,98332.00
2022-11-16T04:47:44.421Z,98330.16
2022-11-16T04:48:16.161Z,98334.47
2022-11-16T04:48:47.618Z,98333.47
2022-11-16T04:49:19.130Z,98330.97
2022-11-16T04:49:50.691Z,98332.81
2022-11-16T04:50:22.140Z,98339.81
2022-11-16T04:50:53.608Z,98329.16
2022-11-16T04:51:25.080Z,98332.66
2022-11-16T04:51:56.488Z,98334.47
2022-11-16T04:52:27.905Z,98334.66
2022-11-16T04:52:59.319Z,98332.00
2022-11-16T04:53:30.827Z,98338.13
2022-11-16T04:54:02.423Z,98337.31
2022-11-16T04:54:33.861Z,98330.97
2022-11-16T04:55:05.646Z,98338.13
2022-11-16T04:55:36.998Z,98332.81
2022-11-16T04:56:08.440Z,98331.19
2022-11-16T04:56:39.912Z,98332.16
2022-11-16T04:57:11.319Z,98337.31
2022-11-16T04:57:42.765Z,98327.50
2022-11-16T04:58:14.196Z,98333.84
2022-11-16T04:58:45.633Z,98333.16
2022-11-16T04:59:17.200Z,98333.16
2022-11-16T04:59:48.652Z,98332.00
2022-11-16T05:00:20.347Z,98325.19
2022-11-16T05:00:51.827Z,98333.84
2022-11-16T05:01:23.384Z,98332.00
2022-11-16T05:01:54.851Z,98332.81
2022-11-16T05:02:26.391Z,98331.19
2022-11-16T05:03:01.329Z,98331.19
2022-11-16T05:03:33.321Z,98333.16
2022-11-16T05:04:04.745Z,98331.69
2022-11-16T05:04:36.785Z,98336.00
2022-11-16T05:05:08.550Z,98335.66
2022-11-16T05:05:40.064Z,98341.81
2022-11-16T05:06:11.539Z,98341.13
2022-11-16T05:06:42.955Z,98337.31
2022-11-16T05:07:14.540Z,98338.78
2022-11-16T05:07:46.137Z,98345.47
2022-11-16T05:08:17.700Z,98343.81
2022-11-16T05:08:49.169Z,98343.47
2022-11-16T05:09:20.677Z,98340.16
2022-11-16T05:09:52.121Z,98350.63
2022-11-16T05:10:23.654Z,98345.28
2022-11-16T05:10:55.142Z,98346.13
2022-11-16T05:11:26.640Z,98352.47
2022-11-16T05:11:58.064Z,98346.13
2022-11-16T05:12:29.504Z,98347.97
2022-11-16T05:13:00.940Z,98347.97
2022-11-16T05:13:32.400Z,98344.47
2022-11-16T05:14:03.880Z,98347.13
2022-11-16T05:14:35.355Z,98346.28
2022-11-16T05:15:07.198Z,98349.13
2022-11-16T05:15:38.640Z,98343.81
2022-11-16T05:16:10.058Z,98344.66
2022-11-16T05:16:41.613Z,98345.47
2022-11-16T05:17:13.150Z,98344.66
2022-11-16T05:17:44.517Z,98338.31
2022-11-16T05:18:16.018Z,98342.63
2022-11-16T05:18:47.444Z,98347.47
2022-11-16T05:19:18.866Z,98341.31
2022-11-16T05:19:50.315Z,98342.16
2022-11-16T05:20:21.790Z,98340.97
2022-11-16T05:20:53.216Z,98344.66
2022-11-16T05:21:24.794Z,98337.66
2022-11-16T05:21:56.259Z,98349.13
2022-11-16T05:22:27.732Z,98339.34
2022-11-16T05:22:59.196Z,98350.78
2022-11-16T05:23:30.611Z,98337.50
2022-11-16T05:24:02.076Z,98340.31
2022-11-16T05:24:33.787Z,98349.13
2022-11-16T05:25:05.691Z,98346.47
2022-11-16T05:25:37.310Z,98348.94
2022-11-16T05:26:08.762Z,98348.78
2022-11-16T05:26:40.221Z,98347.97
2022-11-16T05:27:12.357Z,98350.63
2022-11-16T05:27:43.772Z,98349.81
2022-11-16T05:28:15.199Z,98349.13
2022-11-16T05:28:46.659Z,98351.94
2022-11-16T05:29:18.116Z,98350.97
2022-11-16T05:29:49.638Z,98349.13
2022-11-16T05:30:21.129Z,98346.28
2022-11-16T05:30:52.568Z,98344.28
2022-11-16T05:31:24.085Z,98346.28
2022-11-16T05:31:55.510Z,98347.13
2022-11-16T05:32:27.001Z,98349.97
2022-11-16T05:32:58.410Z,98347.13
2022-11-16T05:33:29.895Z,98347.13
2022-11-16T05:34:01.456Z,98360.44
2022-11-16T05:34:33.048Z,98348.78
2022-11-16T05:35:04.660Z,98355.47
2022-11-16T05:35:36.092Z,98357.09
2022-11-16T05:36:07.797Z,98354.28
2022-11-16T05:36:39.281Z,98354.28
2022-11-16T05:37:10.744Z,98354.44
2022-11-16T05:37:42.160Z,98356.94
2022-11-16T05:38:13.586Z,98362.44
2022-11-16T05:38:45.085Z,98358.94
2022-11-16T05:39:16.529Z,98359.13
2022-11-16T05:39:48.091Z,98356.63
2022-11-16T05:40:19.541Z,98364.44
2022-11-16T05:40:51.329Z,98360.78
2022-11-16T05:41:22.788Z,98365.09
2022-11-16T05:41:54.350Z,98360.09
2022-11-16T05:42:25.776Z,98360.78
2022-11-16T05:42:57.617Z,98360.78
2022-11-16T05:43:29.421Z,98368.78
2022-11-16T05:44:00.840Z,98367.75
2022-11-16T05:44:32.297Z,98371.09
2022-11-16T05:45:06.654Z,98368.09
2022-11-16T05:45:38.142Z,98362.59
2022-11-16T05:46:09.604Z,98362.59
2022-11-16T05:46:41.050Z,98365.25
2022-11-16T05:47:12.600Z,98365.09
2022-11-16T05:47:44.137Z,98358.94
2022-11-16T05:48:15.692Z,98360.63
2022-11-16T05:48:47.208Z,98358.94
2022-11-16T05:49:18.712Z,98369.94
2022-11-16T05:49:50.136Z,98365.09
2022-11-16T05:50:21.691Z,98365.75
2022-11-16T05:50:57.594Z,98366.59
2022-11-16T05:51:29.143Z,98370.41
2022-11-16T05:52:00.622Z,98370.41
2022-11-16T05:52:32.102Z,98367.75
2022-11-16T05:53:03.595Z,98365.94
2022-11-16T05:53:35.069Z,98370.25
2022-11-16T05:54:06.521Z,98365.09
2022-11-16T05:54:38.073Z,98370.06
2022-11-16T05:55:09.541Z,98373.75
2022-11-16T05:55:41.165Z,98372.09
2022-11-16T05:56:12.647Z,98365.09
2022-11-16T05:56:44.365Z,98367.75
2022-11-16T05:57:15.816Z,98371.44
2022-11-16T05:57:47.374Z,98373.06
2022-11-16T05:58:18.746Z,98372.09
2022-11-16T05:58:50.325Z,98372.91
2022-11-16T05:59:21.929Z,98364.09
2022-11-16T05:59:53.557Z,98370.41
2022-11-16T06:00:25.025Z,98374.75
2022-11-16T06:00:57.573Z,98369.59
2022-11-16T06:01:29.044Z,98370.41
2022-11-16T06:02:00.489Z,98376.59
2022-11-16T06:02:34.722Z,98373.25
2022-11-16T06:03:06.204Z,98368.78
2022-11-16T06:03:37.845Z,98372.25
2022-11-16T06:04:09.326Z,98370.75
2022-11-16T06:04:40.717Z,98371.44
2022-11-16T06:05:12.198Z,98368.94
2022-11-16T06:05:43.671Z,98368.09
2022-11-16T06:06:15.226Z,98368.78
2022-11-16T06:06:47.310Z,98373.41
2022-11-16T06:07:18.857Z,98367.09
2022-11-16T06:07:50.298Z,98378.56
2022-11-16T06:08:21.732Z,98372.75
2022-11-16T06:08:53.236Z,98378.72
2022-11-16T06:09:24.615Z,98373.41
2022-11-16T06:09:56.131Z,98382.41
2022-11-16T06:10:27.557Z,98382.25
2022-11-16T06:11:05.536Z,98384.06
2022-11-16T06:11:37.100Z,98381.41
2022-11-16T06:12:08.589Z,98386.72
2022-11-16T06:12:39.997Z,98380.56
2022-11-16T06:13:11.411Z,98379.75
2022-11-16T06:13:42.899Z,98389.38
2022-11-16T06:14:14.383Z,98388.56
2022-11-16T06:14:45.864Z,98388.38
2022-11-16T06:15:17.310Z,98384.72
2022-11-16T06:15:54.274Z,98385.72
2022-11-16T06:16:25.916Z,98382.25
2022-11-16T06:16:57.519Z,98384.91
2022-11-16T06:17:28.935Z,98377.75
2022-11-16T06:18:00.427Z,98385.91
2022-11-16T06:18:32.331Z,98397.53
2022-11-16T06:19:03.964Z,98386.06
2022-11-16T06:19:35.485Z,98394.69
2022-11-16T06:20:07.577Z,98388.72
2022-11-16T06:20:39.505Z,98392.38
2022-11-16T06:21:11.108Z,98396.88
2022-11-16T06:21:42.816Z,98399.38
2022-11-16T06:22:14.169Z,98388.56
2022-11-16T06:22:45.693Z,98401.88
2022-11-16T06:23:17.150Z,98402.03
2022-11-16T06:23:48.647Z,98399.53
2022-11-16T06:24:20.048Z,98399.19
2022-11-16T06:24:51.477Z,98404.03
2022-11-16T06:25:22.995Z,98404.69
2022-11-16T06:25:54.621Z,98404.69